Time;durP1;ratioP1;P1;durP2;ratioP2;P2;SDS_P1;SDS_P2;PMS_P1;PMS_P2;Temp;Humidity;BMP_temperature;BMP_pressure;BME280_temperature;BME280_humidity;BME280_pressure;Samples;Min_cycle;Max_cycle;Signal;HPM_P1;HPM_P2
2021/10/20 00:00:46;;;;;;;6.63;3.17;;;19.40;65.10;;;;;;5015694;28;20030;-71
2021/10/20 00:03:52;;;;;;;8.07;3.72;;;19.40;65.30;;;;;;5015864;28;20108;-72
2021/10/20 00:06:59;;;;;;;7.28;2.00;;;19.40;65.50;;;;;;5014201;28;20067;-72
2021/10/20 00:09:45;;;;;;;;;;;19.40;65.60;;;;;;5014561;28;20029;-73
2021/10/20 00:12:51;;;;;;;8.60;4.20;;;19.40;65.70;;;;;;5015664;28;20371;-72
2021/10/20 00:15:57;;;;;;;10.85;3.08;;;19.40;65.60;;;;;;5014436;28;20521;-72
2021/10/20 00:19:03;;;;;;;17.83;2.88;;;19.40;65.40;;;;;;5013333;28;20032;-72
2021/10/20 00:22:09;;;;;;;5.30;2.10;;;19.30;65.30;;;;;;5016791;28;20029;-72
2021/10/20 00:25:15;;;;;;;9.30;1.70;;;19.40;65.50;;;;;;5013734;28;20025;-71
2021/10/20 00:28:21;;;;;;;10.27;2.78;;;19.30;65.70;;;;;;5013797;28;20432;-72
2021/10/20 00:31:27;;;;;;;10.13;3.20;;;19.30;65.90;;;;;;5015561;28;20049;-73
2021/10/20 00:34:33;;;;;;;7.57;3.47;;;19.30;65.80;;;;;;5015478;28;20139;-72
2021/10/20 00:37:39;;;;;;;10.13;2.97;;;19.30;66.00;;;;;;5014378;28;20507;-71
2021/10/20 00:40:07;;;;;;;9.68;1.92;;;19.30;65.90;;;;;;5012859;28;20049;-72
2021/10/20 00:42:33;;;;;;;9.95;2.45;;;19.30;66.10;;;;;;5016794;28;20033;-73
2021/10/20 00:45:02;;;;;;;7.80;2.75;;;19.20;66.20;;;;;;5013418;28;20021;-73
2021/10/20 00:47:29;;;;;;;5.03;1.70;;;19.20;66.30;;;;;;5012887;28;20018;-73
2021/10/20 00:49:56;;;;;;;7.25;3.13;;;19.20;66.50;;;;;;5013745;28;20600;-73
2021/10/20 00:52:25;;;;;;;12.70;2.42;;;19.20;66.60;;;;;;5015839;28;20034;-72
2021/10/20 00:54:54;;;;;;;13.70;4.25;;;19.10;66.70;;;;;;5015506;28;20503;-73
2021/10/20 00:57:23;;;;;;;7.28;2.20;;;19.10;67.00;;;;;;5011214;28;20029;-73
2021/10/20 00:59:51;;;;;;;11.30;2.92;;;19.10;67.10;;;;;;5012666;28;20013;-73
2021/10/20 01:02:18;;;;;;;5.35;1.90;;;19.10;67.30;;;;;;5014322;28;20040;-72
2021/10/20 01:04:44;;;;;;;6.95;2.15;;;19.10;67.50;;;;;;5015638;28;20025;-73
2021/10/20 01:07:12;;;;;;;6.53;2.22;;;19.00;67.50;;;;;;5012967;28;20026;-74
2021/10/20 01:09:38;;;;;;;8.18;2.33;;;19.10;67.70;;;;;;5010829;28;20018;-73
2021/10/20 01:12:05;;;;;;;10.00;2.95;;;19.00;67.70;;;;;;5014470;28;20488;-73
2021/10/20 01:14:32;;;;;;;9.60;2.40;;;19.00;67.90;;;;;;5013197;28;20029;-73
2021/10/20 01:17:00;;;;;;;6.40;2.17;;;19.00;68.00;;;;;;5014701;28;20513;-72
2021/10/20 01:19:27;;;;;;;10.70;2.78;;;18.90;68.20;;;;;;5010737;28;20500;-72
2021/10/20 01:21:54;;;;;;;4.55;2.60;;;18.90;68.90;;;;;;5012928;28;20916;-72
2021/10/20 01:24:22;;;;;;;9.18;3.72;;;18.90;68.40;;;;;;5013988;28;20021;-73
2021/10/20 01:26:54;;;;;;;14.70;3.15;;;18.90;68.60;;;;;;5014530;28;20017;-73
2021/10/20 01:29:21;;;;;;;8.20;3.13;;;18.90;68.70;;;;;;5013464;28;20099;-73
2021/10/20 01:31:53;;;;;;;8.02;2.97;;;18.90;68.80;;;;;;5019951;28;20009;-74
2021/10/20 01:34:20;;;;;;;8.07;3.15;;;18.90;68.90;;;;;;5022351;28;20037;-72
2021/10/20 01:36:49;;;;;;;9.20;3.20;;;18.90;69.00;;;;;;5019933;28;20026;-73
2021/10/20 01:39:17;;;;;;;8.27;3.08;;;18.80;68.90;;;;;;5018913;28;20060;-72
2021/10/20 01:41:46;;;;;;;14.27;3.55;;;18.80;69.10;;;;;;5018764;28;20064;-72
2021/10/20 01:44:13;;;;;;;9.35;3.15;;;18.80;69.20;;;;;;5020374;28;20716;-73
2021/10/20 01:46:40;;;;;;;9.27;3.00;;;18.70;69.30;;;;;;5022789;28;20076;-72
2021/10/20 01:49:07;;;;;;;8.35;3.40;;;18.70;69.40;;;;;;5019592;28;20068;-73
2021/10/20 01:51:33;;;;;;;8.65;2.88;;;18.70;69.60;;;;;;5022219;28;20068;-73
2021/10/20 01:54:00;;;;;;;8.70;3.08;;;18.70;69.60;;;;;;5019978;28;20053;-73
2021/10/20 01:56:26;;;;;;;6.80;2.85;;;18.70;70.30;;;;;;5021622;28;20028;-73
2021/10/20 01:58:53;;;;;;;9.77;3.38;;;18.60;69.70;;;;;;5019503;28;20032;-73
2021/10/20 02:01:19;;;;;;;17.05;3.85;;;18.70;69.60;;;;;;5022221;28;20908;-71
2021/10/20 02:03:46;;;;;;;21.30;5.07;;;18.70;69.40;;;;;;5022151;28;20119;-71
2021/10/20 02:06:16;;;;;;;14.57;3.92;;;18.70;69.40;;;;;;5021289;28;20420;-70
2021/10/20 02:08:43;;;;;;;10.98;4.03;;;18.70;69.50;;;;;;5021367;28;20459;-72
2021/10/20 02:11:11;;;;;;;14.00;3.92;;;18.60;69.50;;;;;;5020995;28;20048;-72
2021/10/20 02:13:39;;;;;;;17.15;3.35;;;18.60;69.70;;;;;;5021154;28;20025;-72
2021/10/20 02:16:06;;;;;;;9.80;4.25;;;18.60;69.80;;;;;;5020885;28;20717;-72
2021/10/20 02:18:33;;;;;;;7.90;3.45;;;18.60;69.90;;;;;;5020349;28;20041;-73
2021/10/20 02:21:01;;;;;;;7.93;2.70;;;18.60;69.90;;;;;;5020589;28;20028;-73
2021/10/20 02:23:29;;;;;;;10.07;3.30;;;18.60;69.90;;;;;;5020863;28;20014;-72
2021/10/20 02:25:56;;;;;;;8.50;2.50;;;18.60;70.10;;;;;;5022054;28;20380;-72
2021/10/20 02:28:23;;;;;;;8.15;2.78;;;18.60;70.10;;;;;;5021284;28;20025;-73
2021/10/20 02:30:50;;;;;;;8.85;3.28;;;18.60;70.20;;;;;;5020818;28;20032;-71
2021/10/20 02:33:16;;;;;;;8.32;2.85;;;18.60;70.20;;;;;;5019523;28;20049;-72
2021/10/20 02:35:43;;;;;;;9.88;2.58;;;18.50;70.80;;;;;;5022838;28;20017;-75
2021/10/20 02:38:09;;;;;;;8.13;3.10;;;18.50;69.80;;;;;;5020662;28;20103;-72
2021/10/20 02:40:36;;;;;;;6.43;2.88;;;18.50;69.80;;;;;;5019370;28;20045;-71
2021/10/20 02:43:02;;;;;;;11.35;3.53;;;18.50;70.00;;;;;;5017495;28;20025;-73
2021/10/20 02:45:28;;;;;;;12.15;2.80;;;18.50;70.30;;;;;;5016617;28;20091;-72
2021/10/20 02:47:55;;;;;;;9.15;3.58;;;18.40;70.50;;;;;;5018139;28;20026;-73
2021/10/20 02:50:22;;;;;;;11.82;4.05;;;18.50;70.50;;;;;;5017121;28;20013;-71
2021/10/20 02:52:49;;;;;;;10.38;3.17;;;18.50;70.40;;;;;;5002058;28;20564;-73
2021/10/20 02:55:15;;;;;;;12.93;3.33;;;18.50;70.40;;;;;;5019267;28;20071;-73
2021/10/20 02:57:42;;;;;;;10.32;3.65;;;18.50;70.60;;;;;;5016803;28;20408;-73
2021/10/20 03:00:09;;;;;;;14.60;3.83;;;18.40;71.00;;;;;;5016662;28;20464;-73
2021/10/20 03:02:35;;;;;;;9.65;3.53;;;18.40;71.30;;;;;;5017883;28;20567;-73
2021/10/20 03:05:02;;;;;;;16.05;3.97;;;18.40;71.40;;;;;;5017525;28;20041;-74
2021/10/20 03:07:29;;;;;;;10.13;4.68;;;18.40;71.60;;;;;;5017372;28;20493;-72
2021/10/20 03:09:55;;;;;;;13.50;4.07;;;18.40;71.70;;;;;;5017675;28;20205;-73
2021/10/20 03:12:21;;;;;;;11.02;2.95;;;18.30;71.80;;;;;;5016180;28;20045;-72
2021/10/20 03:14:48;;;;;;;12.45;3.95;;;18.30;72.10;;;;;;5019418;28;20055;-71
2021/10/20 03:17:16;;;;;;;16.70;3.45;;;18.30;72.20;;;;;;5016723;28;20030;-71
2021/10/20 03:19:44;;;;;;;9.80;3.10;;;18.30;72.30;;;;;;5016781;28;20094;-71
2021/10/20 03:22:13;;;;;;;18.50;3.92;;;18.20;72.50;;;;;;5017649;28;20028;-72
2021/10/20 03:24:40;;;;;;;12.05;4.68;;;18.20;72.40;;;;;;5002209;28;20582;-71
2021/10/20 03:27:06;;;;;;;12.02;3.92;;;18.20;72.60;;;;;;5017176;28;20108;-71
2021/10/20 03:29:33;;;;;;;17.80;3.80;;;18.20;72.70;;;;;;5014187;28;20036;-72
2021/10/20 03:31:59;;;;;;;11.70;4.00;;;18.20;72.80;;;;;;5015692;28;20113;-72
2021/10/20 03:34:26;;;;;;;16.15;4.65;;;18.10;72.80;;;;;;5017687;28;20107;-71
2021/10/20 03:36:52;;;;;;;36.63;21.15;;;18.10;72.80;;;;;;5018147;28;20020;-75
2021/10/20 03:39:18;;;;;;;34.38;15.95;;;18.10;72.90;;;;;;5015761;28;20053;-72
2021/10/20 03:41:45;;;;;;;21.48;5.85;;;18.20;72.80;;;;;;5017453;28;20029;-72
2021/10/20 03:44:12;;;;;;;16.02;5.10;;;18.10;72.60;;;;;;5015784;28;20457;-72
2021/10/20 03:46:38;;;;;;;16.50;4.78;;;18.10;72.40;;;;;;5013764;28;20156;-74
2021/10/20 03:49:05;;;;;;;15.18;3.90;;;18.10;72.20;;;;;;5017436;28;20385;-76
2021/10/20 03:51:31;;;;;;;20.58;5.95;;;18.10;71.80;;;;;;5018255;28;20540;-76
2021/10/20 03:53:58;;;;;;;11.85;3.95;;;18.10;71.40;;;;;;5016417;28;20029;-71
2021/10/20 03:56:24;;;;;;;15.57;3.85;;;18.10;70.80;;;;;;5015120;28;20021;-72
2021/10/20 03:58:51;;;;;;;11.75;4.25;;;18.10;70.40;;;;;;5014780;28;20061;-76
2021/10/20 04:01:17;;;;;;;8.20;2.63;;;18.10;69.60;;;;;;5016830;28;20030;-75
2021/10/20 04:03:44;;;;;;;40.70;30.63;;;18.10;69.40;;;;;;5015873;28;20025;-72
2021/10/20 04:06:10;;;;;;;33.35;20.45;;;18.10;69.20;;;;;;4999096;28;20021;-75
2021/10/20 04:08:37;;;;;;;23.55;12.95;;;18.10;68.80;;;;;;5015331;28;20022;-73
2021/10/20 04:11:03;;;;;;;16.92;8.43;;;18.10;68.80;;;;;;5022647;28;20022;-71
2021/10/20 04:13:30;;;;;;;9.25;3.90;;;18.20;68.80;;;;;;5016859;28;20523;-76
2021/10/20 04:15:56;;;;;;;10.10;3.38;;;18.20;68.80;;;;;;5017549;28;20021;-75
2021/10/20 04:18:23;;;;;;;10.63;3.35;;;18.20;69.00;;;;;;5014251;28;20690;-72
2021/10/20 04:20:50;;;;;;;10.90;3.20;;;18.20;69.10;;;;;;5013915;28;20481;-73
2021/10/20 04:23:16;;;;;;;14.93;3.47;;;18.20;69.30;;;;;;5016635;28;20052;-71
2021/10/20 04:25:42;;;;;;;13.80;4.63;;;18.20;69.30;;;;;;5014111;28;21007;-69
2021/10/20 04:28:10;;;;;;;32.97;16.77;;;18.20;69.70;;;;;;5015717;28;20075;-71
2021/10/20 04:30:36;;;;;;;20.60;10.57;;;18.20;69.60;;;;;;5013293;28;20017;-73
2021/10/20 04:33:03;;;;;;;14.20;4.57;;;18.30;70.40;;;;;;5015225;28;20053;-75
2021/10/20 04:35:29;;;;;;;10.43;3.63;;;18.20;69.40;;;;;;5016409;28;20028;-73
2021/10/20 04:37:57;;;;;;;10.43;4.88;;;18.20;69.60;;;;;;5015860;28;20091;-73
2021/10/20 04:40:23;;;;;;;13.85;3.83;;;18.20;69.60;;;;;;5013797;28;20431;-84
2021/10/20 04:42:50;;;;;;;6.50;2.97;;;18.20;69.80;;;;;;5012352;28;20022;-75
2021/10/20 04:45:17;;;;;;;10.30;3.00;;;18.20;70.10;;;;;;5016531;28;20033;-74
2021/10/20 04:47:43;;;;;;;8.77;3.47;;;18.20;70.20;;;;;;5017433;28;20307;-75
2021/10/20 04:50:10;;;;;;;18.83;4.25;;;18.20;70.50;;;;;;5017880;28;20060;-75
2021/10/20 04:52:37;;;;;;;8.23;3.05;;;18.20;70.60;;;;;;5015909;28;20022;-74
2021/10/20 04:55:05;;;;;;;8.75;2.95;;;18.20;70.70;;;;;;5017216;28;20010;-75
2021/10/20 04:57:32;;;;;;;8.77;3.25;;;18.20;71.10;;;;;;5015727;28;20099;-75
2021/10/20 04:59:59;;;;;;;11.02;4.05;;;18.20;71.20;;;;;;5014214;28;20526;-74
2021/10/20 05:02:26;;;;;;;10.38;3.45;;;18.20;71.20;;;;;;5016095;28;20515;-74
2021/10/20 05:04:52;;;;;;;10.90;4.00;;;18.20;71.40;;;;;;5013069;28;20023;-74
2021/10/20 05:07:19;;;;;;;10.32;3.40;;;18.20;71.40;;;;;;5015085;28;20022;-75
2021/10/20 05:09:49;;;;;;;7.40;2.72;;;18.20;71.60;;;;;;5016172;28;20483;-75
2021/10/20 05:12:16;;;;;;;9.55;3.20;;;18.20;71.60;;;;;;5014639;28;20520;-74
2021/10/20 05:14:42;;;;;;;13.63;4.53;;;18.30;71.80;;;;;;5015986;28;20112;-75
2021/10/20 05:17:09;;;;;;;10.65;4.72;;;18.30;71.70;;;;;;5015863;28;20029;-75
2021/10/20 05:19:35;;;;;;;12.35;4.03;;;18.30;71.60;;;;;;5013175;28;20038;-75
2021/10/20 05:22:02;;;;;;;9.15;3.78;;;18.40;71.20;;;;;;5013328;28;20017;-75
2021/10/20 05:24:28;;;;;;;10.07;3.50;;;18.40;70.90;;;;;;5013741;28;20094;-75
2021/10/20 05:26:56;;;;;;;10.85;4.68;;;18.40;70.80;;;;;;5013971;28;20456;-75
2021/10/20 05:29:23;;;;;;;14.73;3.40;;;18.40;71.30;;;;;;5017110;28;20071;-75
2021/10/20 05:31:50;;;;;;;16.20;4.43;;;18.50;70.60;;;;;;5016638;28;20030;-75
2021/10/20 05:34:16;;;;;;;14.07;4.07;;;18.50;70.40;;;;;;5015443;28;20053;-75
2021/10/20 05:36:43;;;;;;;12.82;3.72;;;18.50;70.30;;;;;;5014575;28;20022;-75
2021/10/20 05:39:09;;;;;;;12.13;4.15;;;18.60;70.20;;;;;;5017363;28;20034;-76
2021/10/20 05:41:36;;;;;;;18.98;4.20;;;18.60;70.10;;;;;;5015180;28;20117;-74
2021/10/20 05:44:02;;;;;;;10.23;3.40;;;18.60;69.60;;;;;;5016853;28;20069;-74
2021/10/20 05:46:28;;;;;;;14.25;4.38;;;18.70;69.40;;;;;;5016709;28;20030;-75
2021/10/20 05:48:55;;;;;;;18.00;4.22;;;18.70;69.30;;;;;;5017447;28;20477;-75
2021/10/20 05:51:21;;;;;;;16.42;5.10;;;18.70;69.10;;;;;;5016562;28;20616;-75
2021/10/20 05:53:48;;;;;;;11.57;4.30;;;18.80;69.10;;;;;;5016287;28;20501;-75
2021/10/20 05:56:15;;;;;;;13.00;4.57;;;18.90;69.10;;;;;;5016864;28;20052;-75
2021/10/20 05:58:41;;;;;;;16.42;3.80;;;18.90;69.00;;;;;;5018584;28;20026;-74
2021/10/20 06:01:10;;;;;;;17.65;5.95;;;19.00;68.20;;;;;;5013065;28;20224;-75
2021/10/20 06:03:37;;;;;;;14.27;4.63;;;19.10;67.80;;;;;;5015838;28;20025;-74
2021/10/20 06:06:03;;;;;;;7.25;2.92;;;19.10;67.10;;;;;;5015473;28;20014;-75
2021/10/20 06:08:30;;;;;;;6.57;3.40;;;19.20;66.70;;;;;;5017247;28;20036;-75
2021/10/20 06:10:57;;;;;;;10.60;3.95;;;19.20;65.80;;;;;;5015261;28;20037;-73
2021/10/20 06:13:23;;;;;;;14.55;3.65;;;19.30;65.30;;;;;;5015982;28;20111;-75
2021/10/20 06:15:49;;;;;;;18.80;3.72;;;19.40;65.20;;;;;;5020237;28;20026;-75
2021/10/20 06:18:16;;;;;;;15.20;3.97;;;19.50;65.00;;;;;;5018253;28;20034;-75
2021/10/20 06:20:42;;;;;;;12.82;4.97;;;19.60;64.90;;;;;;5018521;28;20025;-74
2021/10/20 06:23:09;;;;;;;13.75;4.28;;;19.70;64.90;;;;;;5021486;28;20425;-75
2021/10/20 06:25:36;;;;;;;13.73;4.85;;;19.70;64.80;;;;;;5021091;28;20512;-74
2021/10/20 06:28:03;;;;;;;16.10;5.72;;;19.80;64.50;;;;;;5019687;28;20076;-74
2021/10/20 06:30:29;;;;;;;15.57;5.97;;;19.90;64.30;;;;;;5019671;28;20045;-75
2021/10/20 06:32:56;;;;;;;11.25;5.43;;;19.90;64.50;;;;;;5020781;28;20073;-75
2021/10/20 06:35:22;;;;;;;16.45;5.22;;;20.00;63.40;;;;;;5019278;28;20052;-75
2021/10/20 06:37:54;;;;;;;15.52;5.35;;;20.10;63.20;;;;;;5019853;28;20025;-75
2021/10/20 06:40:22;;;;;;;13.25;5.50;;;20.20;62.40;;;;;;5019547;28;20568;-75
2021/10/20 06:42:49;;;;;;;14.23;4.57;;;20.30;61.90;;;;;;5021482;28;20014;-75
2021/10/20 06:45:15;;;;;;;12.25;5.20;;;20.40;61.30;;;;;;5020525;28;20016;-75
2021/10/20 06:47:42;;;;;;;10.77;3.80;;;20.50;61.10;;;;;;5019495;28;20377;-75
2021/10/20 06:50:09;;;;;;;11.35;4.38;;;20.60;61.00;;;;;;5016612;28;20507;-75
2021/10/20 06:52:35;;;;;;;8.88;3.42;;;20.70;61.10;;;;;;5001089;28;20025;-74
2021/10/20 06:55:03;;;;;;;8.98;3.00;;;20.80;60.50;;;;;;5019564;28;20426;-75
2021/10/20 06:57:30;;;;;;;12.13;2.95;;;20.90;59.90;;;;;;5016410;28;20013;-74
2021/10/20 06:59:57;;;;;;;7.35;2.58;;;21.00;59.10;;;;;;5017829;28;20480;-74
2021/10/20 07:02:23;;;;;;;7.63;2.63;;;21.10;58.50;;;;;;5019411;28;20025;-74
2021/10/20 07:04:50;;;;;;;5.68;2.83;;;21.20;58.40;;;;;;5017702;28;20500;-74
2021/10/20 07:07:16;;;;;;;7.70;2.97;;;21.30;57.70;;;;;;5019959;28;20503;-74
2021/10/20 07:09:43;;;;;;;11.63;2.75;;;21.40;57.20;;;;;;5017327;28;20061;-75
2021/10/20 07:12:09;;;;;;;6.78;2.60;;;21.50;56.50;;;;;;5019927;28;20021;-75
2021/10/20 07:14:36;;;;;;;9.27;3.17;;;21.60;56.40;;;;;;5021505;28;20021;-75
2021/10/20 07:17:05;;;;;;;7.05;2.53;;;21.70;57.00;;;;;;5018284;28;20018;-75
2021/10/20 07:19:31;;;;;;;6.65;2.45;;;21.80;56.60;;;;;;5018187;28;20198;-74
2021/10/20 07:21:59;;;;;;;7.00;2.55;;;21.80;56.50;;;;;;5019008;28;20056;-75
2021/10/20 07:24:25;;;;;;;8.73;3.47;;;21.90;56.50;;;;;;5017275;28;20034;-74
2021/10/20 07:26:52;;;;;;;9.77;3.25;;;22.00;56.50;;;;;;5018004;28;20024;-75
2021/10/20 07:29:18;;;;;;;11.10;3.53;;;22.10;56.50;;;;;;5019803;28;20152;-75
2021/10/20 07:31:45;;;;;;;12.95;4.45;;;22.20;56.50;;;;;;5015993;28;20570;-75
2021/10/20 07:34:11;;;;;;;10.32;3.35;;;22.40;56.50;;;;;;5018278;28;20041;-75
2021/10/20 07:36:38;;;;;;;15.55;4.20;;;22.50;56.60;;;;;;5020792;28;20148;-75
2021/10/20 07:39:05;;;;;;;10.93;3.95;;;22.60;56.70;;;;;;5019959;28;20033;-73
2021/10/20 07:41:32;;;;;;;10.73;4.00;;;22.60;56.70;;;;;;5016709;28;20018;-75
2021/10/20 07:43:58;;;;;;;8.18;3.25;;;22.70;56.90;;;;;;5020034;28;20014;-76
2021/10/20 07:46:25;;;;;;;8.20;3.40;;;22.80;56.30;;;;;;5016721;28;20022;-75
2021/10/20 07:48:51;;;;;;;11.77;4.03;;;22.90;55.50;;;;;;5018806;28;20022;-75
2021/10/20 07:51:18;;;;;;;9.65;4.00;;;23.10;55.30;;;;;;5016818;28;20071;-75
2021/10/20 07:53:44;;;;;;;15.25;4.07;;;23.20;55.90;;;;;;5016942;28;20112;-75
2021/10/20 07:56:11;;;;;;;11.38;3.65;;;23.30;55.90;;;;;;5016832;28;20057;-75
2021/10/20 07:58:38;;;;;;;11.13;4.47;;;23.30;55.80;;;;;;5018940;28;20030;-73
2021/10/20 08:01:04;;;;;;;10.45;3.33;;;23.40;55.90;;;;;;5019137;28;20645;-75
2021/10/20 08:03:31;;;;;;;22.80;3.72;;;23.40;55.60;;;;;;5019363;28;20461;-76
2021/10/20 08:05:57;;;;;;;13.32;3.97;;;23.50;55.30;;;;;;5019785;28;20777;-73
2021/10/20 08:08:24;;;;;;;12.90;3.65;;;23.60;55.50;;;;;;5014397;28;20481;-75
2021/10/20 08:10:50;;;;;;;8.30;3.10;;;23.70;55.30;;;;;;5017233;28;20510;-73
2021/10/20 08:13:17;;;;;;;10.77;3.45;;;23.80;54.70;;;;;;5020154;28;20049;-73
2021/10/20 08:15:43;;;;;;;19.75;5.53;;;23.90;54.00;;;;;;5014319;28;20021;-72
2021/10/20 08:18:10;;;;;;;12.23;3.17;;;24.10;54.30;;;;;;5017614;28;20041;-75
2021/10/20 08:20:37;;;;;;;16.20;3.67;;;24.20;54.40;;;;;;5018710;28;20032;-73
2021/10/20 08:23:07;;;;;;;7.22;3.58;;;24.30;53.20;;;;;;5015230;28;20026;-72
2021/10/20 08:25:36;;;;;;;10.50;4.07;;;24.40;53.40;;;;;;5020525;28;20100;-75
2021/10/20 08:28:05;;;;;;;10.05;3.55;;;24.50;53.90;;;;;;5012543;28;20355;-73
2021/10/20 08:30:33;;;;;;;12.55;4.07;;;24.60;53.30;;;;;;5017875;28;20035;-73
2021/10/20 08:33:00;;;;;;;16.98;5.75;;;24.70;53.40;;;;;;5016403;28;20049;-73
2021/10/20 08:35:27;;;;;;;15.20;4.30;;;24.80;52.20;;;;;;5018659;28;20080;-73
2021/10/20 08:37:56;;;;;;;11.57;2.72;;;24.90;51.90;;;;;;5016074;28;20109;-74
2021/10/20 08:40:29;;;;;;;14.20;3.85;;;25.00;51.60;;;;;;5001710;28;20730;-73
2021/10/20 08:42:57;;;;;;;12.95;3.28;;;25.10;51.00;;;;;;5019355;28;20033;-75
2021/10/20 08:45:24;;;;;;;9.57;3.08;;;25.20;50.90;;;;;;5013992;28;20046;-74
2021/10/20 08:47:52;;;;;;;8.00;3.17;;;25.30;50.60;;;;;;5018648;28;20030;-74
2021/10/20 08:50:22;;;;;;;12.23;3.33;;;25.40;50.00;;;;;;5013699;28;20069;-76
2021/10/20 08:52:50;;;;;;;11.18;4.45;;;25.50;49.30;;;;;;5020046;28;20030;-73
2021/10/20 08:55:18;;;;;;;9.23;2.80;;;25.60;47.60;;;;;;4997884;28;20049;-73
2021/10/20 08:57:45;;;;;;;11.57;4.20;;;25.80;47.90;;;;;;5016606;28;20175;-76
2021/10/20 09:00:13;;;;;;;5.88;3.33;;;25.80;47.80;;;;;;5016335;28;20473;-73
2021/10/20 09:02:41;;;;;;;10.82;2.42;;;26.00;47.40;;;;;;5016617;28;20487;-75
2021/10/20 09:05:13;;;;;;;9.30;2.97;;;26.00;45.80;;;;;;5015086;28;20464;-73
2021/10/20 09:07:48;;;;;;;9.30;3.13;;;26.10;46.10;;;;;;5014112;28;20033;-73
2021/10/20 09:10:16;;;;;;;9.57;2.58;;;26.20;46.70;;;;;;5016602;28;20044;-74
2021/10/20 09:12:43;;;;;;;4.85;2.20;;;26.20;46.50;;;;;;5016796;28;20065;-73
2021/10/20 09:15:12;;;;;;;11.20;2.90;;;26.30;45.30;;;;;;5018332;28;20029;-73
2021/10/20 09:17:51;;;;;;;9.40;3.08;;;26.40;45.00;;;;;;5003760;28;20045;-74
2021/10/20 09:20:23;;;;;;;11.88;3.65;;;26.50;44.90;;;;;;5016357;28;20061;-73
2021/10/20 09:22:56;;;;;;;10.77;3.13;;;26.60;44.90;;;;;;5014581;28;20110;-74
2021/10/20 09:25:31;;;;;;;7.75;2.47;;;26.70;45.10;;;;;;5018701;28;20627;-76
2021/10/20 09:27:57;;;;;;;9.60;2.72;;;26.70;44.90;;;;;;5018053;28;20022;-76
2021/10/20 09:30:28;;;;;;;6.18;3.65;;;26.80;44.30;;;;;;5018221;28;20369;-76
2021/10/20 09:32:58;;;;;;;9.00;2.83;;;26.90;44.00;;;;;;5011836;28;20034;-76
2021/10/20 09:35:28;;;;;;;7.07;1.77;;;27.00;44.00;;;;;;5018134;28;20436;-76
2021/10/20 09:37:59;;;;;;;7.82;2.20;;;27.10;43.90;;;;;;5016716;28;20024;-76
2021/10/20 09:40:34;;;;;;;6.18;3.00;;;27.20;43.90;;;;;;5015683;28;20024;-75
2021/10/20 09:43:01;;;;;;;11.43;2.35;;;27.20;43.10;;;;;;5017777;28;20037;-76
2021/10/20 09:45:31;;;;;;;5.75;2.00;;;27.30;42.40;;;;;;5012280;28;20021;-76
2021/10/20 09:48:11;;;;;;;6.75;1.83;;;27.40;41.30;;;;;;5015703;28;20052;-76
2021/10/20 09:50:57;;;;;;;10.30;2.30;;;27.40;41.90;;;;;;5013203;28;20021;-75
2021/10/20 09:53:32;;;;;;;7.53;2.42;;;27.50;41.80;;;;;;5021329;28;20504;-75
2021/10/20 09:56:18;;;;;;;10.80;3.00;;;27.60;42.10;;;;;;5018809;28;20029;-75
2021/10/20 09:58:46;;;;;;;9.80;2.20;;;27.70;42.80;;;;;;5021614;28;20112;-76
2021/10/20 10:01:18;;;;;;;5.03;1.80;;;27.70;42.00;;;;;;5019928;28;20412;-76
2021/10/20 10:03:45;;;;;;;8.98;3.05;;;27.90;41.70;;;;;;5017552;28;20381;-76
2021/10/20 10:06:12;;;;;;;7.65;2.42;;;27.90;41.60;;;;;;5020572;28;20025;-75
2021/10/20 10:08:38;;;;;;;5.78;2.20;;;28.00;41.50;;;;;;5004232;28;20378;-76
2021/10/20 10:11:05;;;;;;;6.07;1.65;;;28.10;41.90;;;;;;5021850;28;20092;-75
2021/10/20 10:13:54;;;;;;;5.72;2.50;;;28.10;41.40;;;;;;5017638;28;20099;-75
2021/10/20 10:16:27;;;;;;;6.63;2.08;;;28.20;40.50;;;;;;5018382;28;20083;-74
2021/10/20 10:18:56;;;;;;;10.23;2.75;;;28.30;41.00;;;;;;5020870;28;20049;-75
2021/10/20 10:21:35;;;;;;;6.22;2.15;;;28.30;40.80;;;;;;5018756;28;20029;-76
2021/10/20 10:24:04;;;;;;;12.23;2.42;;;28.40;40.00;;;;;;5021196;28;20096;-76
2021/10/20 10:26:57;;;;;;;6.50;1.95;;;28.40;39.80;;;;;;5017631;28;20018;-73
2021/10/20 10:29:24;;;;;;;8.77;2.63;;;28.40;39.80;;;;;;5018841;28;20025;-74
2021/10/20 10:31:51;;;;;;;6.13;2.00;;;28.40;40.30;;;;;;5014514;28;20025;-73
2021/10/20 10:34:37;;;;;;;13.60;2.55;;;28.40;40.10;;;;;;5015533;28;20659;-73
2021/10/20 10:37:04;;;;;;;9.45;2.28;;;28.40;41.10;;;;;;5017631;28;20140;-72
2021/10/20 10:39:33;;;;;;;7.80;2.08;;;28.40;41.00;;;;;;5014777;28;20073;-73
2021/10/20 10:42:06;;;;;;;9.70;2.22;;;28.50;40.90;;;;;;4999674;28;20119;-73
2021/10/20 10:44:49;;;;;;;7.45;2.30;;;28.50;39.70;;;;;;5015025;28;20052;-74
2021/10/20 10:47:28;;;;;;;7.63;2.17;;;28.50;40.30;;;;;;5017988;28;20024;-74
2021/10/20 10:49:57;;;;;;;6.65;2.40;;;28.50;41.00;;;;;;5017056;28;20104;-72
2021/10/20 10:52:32;;;;;;;11.13;2.85;;;28.40;41.40;;;;;;5020471;28;20109;-73
2021/10/20 10:55:20;;;;;;;5.20;2.55;;;28.40;41.60;;;;;;5019206;28;20504;-75
2021/10/20 10:58:01;;;;;;;10.27;3.58;;;28.40;41.50;;;;;;5015401;28;20029;-77
2021/10/20 11:00:32;;;;;;;11.13;3.00;;;28.50;42.40;;;;;;5013989;28;20030;-75
2021/10/20 11:03:08;;;;;;;6.60;2.70;;;28.50;42.30;;;;;;5017260;28;20028;-74
2021/10/20 11:05:34;;;;;;;7.22;2.35;;;28.60;42.80;;;;;;5020319;28;20018;-74
2021/10/20 11:08:03;;;;;;;7.32;2.25;;;28.70;41.40;;;;;;5014291;28;20018;-73
2021/10/20 11:10:30;;;;;;;13.48;2.78;;;28.70;41.40;;;;;;5016051;28;20080;-72
2021/10/20 11:12:58;;;;;;;9.45;1.90;;;28.80;40.90;;;;;;5014064;28;20018;-72
2021/10/20 11:15:25;;;;;;;7.35;2.25;;;28.80;41.10;;;;;;5016715;28;20496;-74
2021/10/20 11:17:52;;;;;;;10.52;2.60;;;28.80;40.40;;;;;;5018645;28;20013;-72
2021/10/20 11:20:21;;;;;;;10.52;3.03;;;28.80;39.90;;;;;;5019653;28;20068;-72
2021/10/20 11:22:53;;;;;;;8.27;2.20;;;28.80;41.10;;;;;;5015250;28;20026;-72
2021/10/20 11:25:23;;;;;;;9.18;2.63;;;28.90;41.90;;;;;;5014549;28;20025;-72
2021/10/20 11:27:54;;;;;;;8.45;2.38;;;28.90;41.40;;;;;;5018212;28;20028;-75
2021/10/20 11:30:32;;;;;;;11.70;3.88;;;29.00;41.20;;;;;;5017510;28;20057;-73
2021/10/20 11:33:01;;;;;;;13.27;2.40;;;29.00;41.10;;;;;;5017186;28;20046;-73
2021/10/20 11:35:30;;;;;;;7.93;2.72;;;29.10;40.40;;;;;;5015423;28;20018;-73
2021/10/20 11:38:00;;;;;;;7.97;3.28;;;29.20;40.90;;;;;;5017751;28;20726;-73
2021/10/20 11:40:43;;;;;;;10.18;3.35;;;29.20;40.20;;;;;;5020086;28;20059;-73
2021/10/20 11:43:16;;;;;;;8.65;2.35;;;29.30;41.80;;;;;;5016949;28;20017;-76
2021/10/20 11:45:42;;;;;;;9.52;3.17;;;29.30;40.10;;;;;;5019910;28;20405;-75
2021/10/20 11:48:09;;;;;;;12.10;3.67;;;29.40;42.20;;;;;;5007209;28;20125;-79
2021/10/20 11:50:38;;;;;;;9.63;3.00;;;29.40;42.20;;;;;;5014449;28;20036;-78
2021/10/20 11:53:08;;;;;;;11.13;2.95;;;29.50;41.90;;;;;;4994728;28;20480;-76
2021/10/20 11:55:45;;;;;;;18.17;4.35;;;29.50;42.10;;;;;;4996619;28;20392;-76
2021/10/20 11:58:21;;;;;;;10.63;3.53;;;29.50;41.50;;;;;;5015394;28;20087;-74
2021/10/20 12:00:58;;;;;;;7.25;2.90;;;29.50;41.70;;;;;;5012200;28;20461;-73
2021/10/20 12:03:32;;;;;;;17.58;4.68;;;29.50;42.20;;;;;;5014733;28;20017;-73
2021/10/20 12:06:02;;;;;;;9.98;2.72;;;29.50;42.60;;;;;;5014494;28;20036;-78
2021/10/20 12:08:29;;;;;;;8.82;3.25;;;29.50;42.40;;;;;;5012526;28;20556;-75
2021/10/20 12:10:56;;;;;;;11.00;3.65;;;29.50;41.50;;;;;;5013615;28;20029;-75
2021/10/20 12:13:23;;;;;;;12.68;4.07;;;29.50;41.80;;;;;;5017430;28;20723;-75
2021/10/20 12:15:51;;;;;;;14.40;4.05;;;29.40;43.00;;;;;;5016900;28;20018;-75
2021/10/20 12:18:18;;;;;;;18.70;4.28;;;29.40;43.40;;;;;;5015606;28;20041;-75
2021/10/20 12:20:54;;;;;;;13.50;3.78;;;29.50;43.40;;;;;;5017362;28;20030;-75
2021/10/20 12:23:21;;;;;;;11.73;4.03;;;29.50;44.30;;;;;;5018349;28;20018;-75
2021/10/20 12:25:48;;;;;;;11.23;3.95;;;29.40;43.80;;;;;;5015127;28;20045;-75
2021/10/20 12:28:14;;;;;;;13.40;3.60;;;29.40;44.20;;;;;;5015766;28;20018;-75
2021/10/20 12:30:41;;;;;;;10.57;3.75;;;29.40;43.80;;;;;;5015291;28;20092;-75
2021/10/20 12:33:12;;;;;;;14.05;3.88;;;29.30;43.70;;;;;;5020908;28;20034;-74
2021/10/20 12:35:49;;;;;;;12.60;4.50;;;29.30;43.80;;;;;;5017835;28;20524;-75
2021/10/20 12:38:16;;;;;;;12.35;4.57;;;29.20;44.40;;;;;;5015822;28;20033;-75
2021/10/20 12:40:47;;;;;;;15.55;4.30;;;29.10;43.50;;;;;;5017896;28;20017;-75
2021/10/20 12:43:18;;;;;;;17.77;4.88;;;29.10;44.30;;;;;;5013560;28;20523;-75
2021/10/20 12:45:49;;;;;;;14.20;4.75;;;29.00;45.20;;;;;;5018260;28;20048;-75
2021/10/20 12:48:16;;;;;;;21.95;4.38;;;28.90;44.60;;;;;;4997035;28;20022;-75
2021/10/20 12:50:48;;;;;;;13.88;4.13;;;28.80;45.20;;;;;;5016728;28;20052;-75
2021/10/20 12:53:16;;;;;;;16.65;4.97;;;28.70;46.10;;;;;;5014492;28;20045;-75